Latest Weather Observations for Cressy

IDT60801

Issued at 1:51 pm EDT Wednesday 20 January 2021 (issued every 10 minutes, with the page automatically refreshed every 10 minutes)

About weather observations | Map of weather stations | Latest weather observations for TAS | Other Formats
Station Details ID: 091306 Name: CRESSY RESEARCH STATION Lat: -41.73 Lon: 147.08 Height: 148.0 m
Data from the previous 72 hours. | See also: Recent months at Cressy
Date/Time
EDT
Temp
°C
App
Temp
°C
Dew
Point
°C
Rel
Hum
%
Delta-T
°C
Wind Press
QNH
hPa
Press
MSL
hPa
Rain since
9am
mm
Dir  Spd
km/h
Gust
km/h
Spd
kts
Gust
kts
20/01:30pm 23.0 19.1 3.5 28 9.5 N 13 28 7 15 - - 0.0
20/01:00pm 22.6 18.7 5.5 33 8.6 NNW 15 28 8 15 - - 0.0
20/12:30pm 21.2 17.2 4.7 34 8.1 NW 15 24 8 13 - - 0.0
20/12:00pm 20.2 15.8 4.7 36 7.6 NNW 17 26 9 14 - - 0.0
20/11:30am 19.6 15.9 6.4 42 6.6 NW 15 22 8 12 - - 0.0
20/11:00am 18.0 13.9 6.2 46 5.9 NNW 17 26 9 14 - - 0.0
20/10:30am 16.8 14.1 5.4 47 5.5 N 9 17 5 9 - - 0.0
20/10:00am 15.0 11.9 3.5 46 5.3 NNW 9 13 5 7 - - 0.0
20/09:30am 13.5 10.9 3.3 50 4.6 N 6 9 3 5 - - 0.0
20/09:00am 12.2 10.0 3.2 54 4.0 NW 4 7 2 4 - - 0.0
20/08:30am 11.2 8.7 4.0 61 3.2 SSE 6 7 3 4 - - 0.0
20/08:00am 9.8 7.5 4.6 70 2.3 SSE 6 7 3 4 - - 0.0
20/07:30am 7.4 4.8 4.2 80 1.4 S 7 9 4 5 - - 0.0
20/07:00am 4.8 2.1 3.5 91 0.5 SSE 7 11 4 6 - - 0.0
20/06:30am 2.6 -1.2 1.7 94 0.4 S 11 13 6 7 - - 0.0
20/06:00am 1.2 -2.5 0.0 92 0.4 S 9 13 5 7 - - 0.0
20/05:30am 1.4 -2.3 0.2 92 0.4 SSW 9 13 5 7 - - 0.0
20/05:00am 1.5 -2.2 0.2 91 0.5 S 9 11 5 6 - - 0.0
20/04:30am 2.1 -1.9 0.8 91 0.5 S 11 13 6 7 - - 0.0
20/04:00am 2.6 -1.7 1.3 91 0.5 SSW 13 15 7 8 - - 0.0
20/03:30am 2.5 -0.7 0.6 87 0.7 S 7 9 4 5 - - 0.0
20/03:00am 3.2 1.0 1.1 86 0.8 S 2 7 1 4 - - 0.0
20/02:30am 4.0 2.2 1.4 83 1.0 CALM 0 0 0 0 - - 0.0
20/02:00am 5.8 3.8 2.3 78 1.4 WSW 2 7 1 4 - - 0.0
20/01:30am 6.0 2.8 1.0 70 2.0 ESE 7 11 4 6 - - 0.0
20/01:00am 7.7 5.6 1.5 65 2.5 NE 2 7 1 4 - - 0.0
20/12:30am 8.8 5.3 1.5 60 3.0 E 9 15 5 8 - - 0.0
20/12:00am 10.2 5.6 1.6 55 3.6 SE 15 20 8 11 - - 0.0
 
Date/Time
EDT
Temp
°C
App
Temp
°C
Dew
Point
°C
Rel
Hum
%
Delta-T
°C
Wind Press
QNH
hPa
Press
MSL
hPa
Rain since
9am
mm
Dir  Spd
km/h
Gust
km/h
Spd
kts
Gust
kts
19/11:30pm 10.5 6.3 1.6 54 3.8 ESE 13 17 7 9 - - 0.0
19/11:00pm 11.3 6.3 1.3 50 4.2 SE 17 24 9 13 - - 0.0
19/10:30pm 11.4 6.8 1.4 50 4.2 SE 15 20 8 11 - - 0.0
19/10:00pm 13.0 7.3 0.4 42 5.3 SSE 20 28 11 15 - - 0.0
19/09:30pm 13.5 7.9 0.2 40 5.6 S 19 28 10 15 - - 0.0
19/09:00pm 14.0 8.5 0.6 40 5.7 S 19 28 10 15 - - 0.0
19/08:30pm 14.5 9.3 0.0 37 6.1 S 17 30 9 16 - - 0.0
19/08:00pm 16.3 11.1 0.0 33 7.0 S 17 24 9 13 - - 0.0
19/07:30pm 17.6 12.4 0.3 31 7.6 S 17 24 9 13 - - 0.0
19/07:00pm 18.1 12.5 -0.2 29 8.0 SSE 19 28 10 15 - - 0.0
19/06:30pm 18.6 12.0 -0.2 28 8.2 S 24 35 13 19 - - 0.0
19/06:00pm 19.2 11.7 -1.3 25 8.8 S 28 37 15 20 - - 0.0
19/05:30pm 19.4 13.0 -1.7 24 9.0 SE 22 32 12 17 - - 0.0
19/05:00pm 19.2 12.0 -1.8 24 8.9 SSE 26 35 14 19 - - 0.0
19/04:30pm 19.6 12.4 -2.1 23 9.2 SSE 26 37 14 20 - - 0.0
19/04:00pm 19.1 12.7 -1.4 25 8.8 SSE 22 35 12 19 - - 0.0
19/03:30pm 19.2 12.2 -0.7 26 8.7 S 26 37 14 20 - - 0.0
19/03:00pm 19.4 12.8 -0.6 26 8.7 S 24 35 13 19 - - 0.0
19/02:30pm 19.5 13.3 -0.5 26 8.8 S 22 35 12 19 - - 0.0
19/02:00pm 18.9 11.5 -0.5 27 8.5 S 28 41 15 22 - - 0.0
19/01:30pm 18.2 12.3 -1.1 27 8.3 S 20 35 11 19 - - 0.0
19/01:00pm 18.1 11.8 -0.7 28 8.1 SSE 22 35 12 19 - - 0.0
19/12:30pm 17.0 10.7 -1.1 29 7.7 S 22 32 12 17 - - 0.0
19/12:00pm 16.2 9.6 -0.1 33 7.0 SSW 24 39 13 21 - - 0.0
19/11:30am 17.2 10.6 -0.5 30 7.6 SSW 24 35 13 19 - - 0.0
19/11:00am 16.4 11.5 -0.3 32 7.2 S 15 30 8 16 - - 0.0
19/10:30am 15.7 8.7 -0.5 33 6.9 SSW 26 41 14 22 - - 0.0
19/10:00am 14.7 7.7 -0.6 35 6.4 SSW 26 39 14 21 - - 0.0
19/09:30am 14.0 8.8 -0.1 38 5.9 SSW 17 30 9 16 - - 0.0
19/09:00am 13.2 7.9 -0.4 39 5.6 S 17 30 9 16 - - 0.0
19/08:30am 12.3 7.1 0.4 44 5.0 SW 17 24 9 13 - - 0.0
19/08:00am 12.0 6.8 0.1 44 4.9 S 17 32 9 17 - - 0.0
19/07:30am 10.6 5.5 0.6 50 4.1 SSW 17 28 9 15 - - 0.0
19/07:00am 9.6 4.9 0.8 54 3.6 SSE 15 30 8 16 - - 0.0
19/06:30am 8.5 5.1 -0.3 54 3.5 SW 7 11 4 6 - - 0.0
19/06:00am 8.6 5.2 -0.7 52 3.7 WSW 7 13 4 7 - - 0.0
19/05:30am 8.5 4.3 -0.8 52 3.6 SW 11 22 6 12 - - 0.0
19/05:00am 8.3 4.5 -0.7 53 3.5 SW 9 15 5 8 - - 0.0
19/04:30am 9.3 3.6 -0.6 50 3.9 SW 19 32 10 17 - - 0.0
19/04:00am 6.9 4.1 -0.5 59 2.9 N 4 11 2 6 - - 0.0
19/03:30am 9.1 4.2 -0.2 52 3.7 SSW 15 28 8 15 - - 0.0
19/03:00am 9.1 3.4 -0.5 51 3.8 S 19 37 10 20 - - 0.0
19/02:30am 9.8 2.7 -1.0 47 4.3 SSW 26 44 14 24 - - 0.0
19/02:00am 9.6 3.0 -0.6 49 4.1 S 24 46 13 25 - - 0.0
19/01:30am 9.4 3.7 -0.5 50 3.9 S 19 35 10 19 - - 0.0
19/01:00am 10.0 3.0 -0.8 47 4.3 SSW 26 41 14 22 - - 0.0
19/12:30am 10.3 2.9 -0.8 46 4.4 SSW 28 43 15 23 - - 0.0
19/12:00am 10.7 3.2 -1.7 42 4.9 S 28 46 15 25 - - 0.0
 
Date/Time
EDT
Temp
°C
App
Temp
°C
Dew
Point
°C
Rel
Hum
%
Delta-T
°C
Wind Press
QNH
hPa
Press
MSL
hPa
Rain since
9am
mm
Dir  Spd
km/h
Gust
km/h
Spd
kts
Gust
kts
18/11:30pm 10.3 4.1 -0.5 47 4.3 S 22 33 12 18 - - 0.0
18/11:18pm 11.3 3.8 -1.5 41 5.1 S 28 48 15 26 - - 0.0
18/11:00pm 11.7 4.7 -0.4 43 4.9 S 26 41 14 22 - - 0.0
18/10:30pm 11.8 5.3 0.3 45 4.8 S 24 39 13 21 - - 0.0
18/10:00pm 11.9 5.4 0.1 44 4.9 SSW 24 35 13 19 - - 0.0
18/09:30pm 12.5 5.0 -1.1 39 5.5 SSW 28 43 15 23 - - 0.0
18/09:00pm 13.9 6.0 0.9 41 5.6 SW 32 59 17 32 - - 0.0
18/08:30pm 14.4 6.2 0.6 39 5.9 SSW 33 52 18 28 - - 0.0
18/08:16pm 15.2 7.5 0.2 36 6.4 SW 30 72 16 39 - - 0.0
18/08:15pm 15.3 8.0 0.3 36 6.4 SW 28 72 15 39 - - 0.0
18/08:00pm 16.0 8.7 2.4 40 6.1 W 30 43 16 23 - - 0.0
18/07:30pm 16.5 10.5 3.2 41 6.1 SW 24 37 13 20 - - 0.0
18/07:19pm 16.9 10.1 2.9 39 6.4 WSW 28 44 15 24 - - 0.0
18/07:00pm 16.9 8.0 3.2 40 6.3 W 39 59 21 32 - - 0.0
18/06:31pm 18.6 8.0 3.3 36 7.2 W 48 72 26 39 - - 0.0
18/06:30pm 18.6 8.0 2.9 35 7.3 W 48 72 26 39 - - 0.0
18/06:00pm 18.4 9.3 3.8 38 6.9 WSW 41 63 22 34 - - 0.0
18/05:30pm 19.3 11.0 4.3 37 7.2 SW 37 61 20 33 - - 0.0
18/05:24pm 19.4 10.9 3.2 34 7.6 WSW 37 61 20 33 - - 0.0
18/05:00pm 20.8 12.5 4.4 34 8.0 WSW 37 54 20 29 - - 0.0
18/04:51pm 21.5 14.0 3.7 31 8.6 WSW 32 54 17 29 - - 0.0
18/04:44pm 21.7 13.4 4.3 32 8.5 W 37 50 20 27 - - 0.0
18/04:30pm 22.2 13.9 6.0 35 8.2 WNW 39 54 21 29 - - 0.0
18/04:28pm 22.5 14.2 6.3 35 8.3 WNW 39 54 21 29 - - 0.0
18/04:00pm 21.4 10.1 5.3 35 8.0 W 54 72 29 39 - - 0.0
18/03:57pm 21.6 11.1 5.5 35 8.1 W 50 72 27 39 - - 0.0
18/03:55pm 21.9 11.3 5.3 34 8.3 W 50 72 27 39 - - 0.0
18/03:40pm 22.7 14.4 6.0 34 8.5 W 39 63 21 34 - - 0.0
18/03:31pm 22.9 15.1 8.2 39 7.8 W 39 57 21 31 - - 0.0
18/03:30pm 22.6 14.5 7.2 37 8.0 W 39 57 21 31 - - 0.0
18/03:24pm 22.7 15.6 5.6 33 8.7 W 32 54 17 29 - - 0.0
18/03:00pm 22.9 17.2 6.6 35 8.4 W 26 43 14 23 - - 0.0
18/02:30pm 22.9 18.1 7.4 37 8.1 W 22 35 12 19 - - 0.0
18/02:00pm 23.6 17.7 7.7 36 8.4 WNW 28 41 15 22 - - 0.0
18/01:30pm 22.9 16.9 7.1 36 8.2 NW 28 43 15 23 - - 0.0
18/01:00pm 19.5 13.0 9.1 51 5.5 NNW 33 48 18 26 - - 0.0
18/12:30pm 18.7 11.9 9.2 54 5.0 NNW 35 48 19 26 - - 0.0
18/12:00pm 18.1 11.2 8.9 55 4.8 NNW 35 44 19 24 - - 0.0
18/11:30am 17.8 11.5 8.9 56 4.6 NW 32 39 17 21 - - 0.0
18/11:00am 17.9 13.4 8.5 54 4.9 NW 22 30 12 16 - - 0.0
18/10:30am 18.1 12.3 7.8 51 5.3 WNW 28 39 15 21 - - 0.0
18/10:00am 17.7 11.9 8.0 53 5.0 WNW 28 39 15 21 - - 0.0
18/09:30am 17.2 11.5 8.4 56 4.5 WNW 28 41 15 22 - - 0.0
18/09:00am 16.3 10.8 9.3 63 3.7 NW 28 39 15 21 - - 0.0
18/08:30am 15.5 10.1 9.6 68 3.1 NW 28 39 15 21 - - 0.0
18/08:00am 14.5 9.5 9.7 73 2.5 NW 26 37 14 20 - - 0.0
18/07:30am 14.4 9.0 9.4 72 2.6 NNW 28 37 15 20 - - 0.0
18/07:00am 13.2 8.2 9.5 78 1.9 NNW 26 32 14 17 - - 0.0
18/06:30am 12.9 7.4 9.0 77 2.0 NNW 28 35 15 19 - - 0.0
18/06:00am 12.5 7.3 9.0 79 1.8 NNW 26 32 14 17 - - 0.0
18/05:30am 12.7 8.3 9.0 78 1.9 NNW 22 30 12 16 - - 0.0
18/05:00am 12.4 8.6 8.9 79 1.8 N 19 24 10 13 - - 0.0
18/04:30am 12.8 8.4 9.1 78 1.9 NNW 22 28 12 15 - - 0.0
18/04:00am 12.6 8.2 8.9 78 1.9 NNW 22 28 12 15 - - 0.0
18/03:30am 12.5 8.1 9.0 79 1.8 NNW 22 30 12 16 - - 0.0
18/03:00am 12.5 7.4 9.3 81 1.6 NNW 26 32 14 17 - - 0.0
18/02:30am 12.4 8.1 9.4 82 1.5 N 22 30 12 16 - - 0.0
18/02:00am 12.3 8.1 9.7 84 1.3 N 22 32 12 17 - - 0.0
18/01:30am 12.7 8.1 9.7 82 1.5 NNW 24 30 13 16 - - 0.0
18/01:00am 13.1 8.2 9.9 81 1.7 NNW 26 32 14 17 - - 0.0
18/12:30am 13.0 7.8 10.2 83 1.5 NNW 28 35 15 19 - - 0.0
18/12:00am 13.0 7.8 10.4 84 1.4 NNW 28 37 15 20 - - 0.0
 
Date/Time
EDT
Temp
°C
App
Temp
°C
Dew
Point
°C
Rel
Hum
%
Delta-T
°C
Wind Press
QNH
hPa
Press
MSL
hPa
Rain since
9am
mm
Dir  Spd
km/h
Gust
km/h
Spd
kts
Gust
kts
17/11:30pm 13.0 8.6 10.4 84 1.4 NNW 24 32 13 17 - - 0.0
17/11:00pm 13.7 8.9 10.3 80 1.8 NNW 26 35 14 19 - - 0.0
17/10:30pm 13.7 8.1 10.3 80 1.8 NNW 30 41 16 22 - - 0.0
17/10:00pm 14.0 7.9 10.4 79 1.9 NNW 33 44 18 24 - - 0.0
17/09:30pm 14.2 8.7 10.4 78 2.0 N 30 41 16 22 - - 0.0
17/09:00pm 14.3 9.4 10.1 76 2.2 N 26 37 14 20 - - 0.0
17/08:30pm 14.8 9.9 9.8 72 2.6 NNW 26 35 14 19 - - 0.0
17/08:00pm 15.3 10.0 9.7 69 2.9 NNW 28 37 15 20 - - 0.0
17/07:30pm 15.7 10.0 9.8 68 3.1 NNW 30 37 16 20 - - 0.0
17/07:00pm 16.0 9.9 9.7 66 3.3 NNW 32 41 17 22 - - 0.0
17/06:30pm 16.0 9.8 9.2 64 3.5 NNW 32 44 17 24 - - 0.0
17/06:00pm 15.9 9.0 8.9 63 3.6 NNW 35 50 19 27 - - 0.0
17/05:30pm 18.0 10.3 8.8 55 4.8 NNW 39 59 21 32 - - 0.0
17/05:26pm 18.1 10.5 8.9 55 4.8 NNW 39 59 21 32 - - 0.0
17/05:00pm 19.0 12.7 9.8 55 4.9 NW 33 46 18 25 - - 0.0
17/04:30pm 19.0 12.2 9.2 53 5.2 NNW 35 50 19 27 - - 0.0
17/04:23pm 18.1 11.0 8.1 52 5.2 NW 35 54 19 29 - - 0.0
17/04:00pm 16.7 8.4 7.9 56 4.5 NNW 41 56 22 30 - - 0.0
17/03:30pm 16.4 8.4 7.3 55 4.6 NNW 39 50 21 27 - - 0.0
17/03:04pm 16.4 9.1 7.3 55 4.6 NW 35 54 19 29 - - 0.0
17/03:00pm 16.1 7.6 7.1 55 4.5 NW 41 54 22 29 - - 0.0
17/02:48pm 16.6 9.6 6.7 52 4.9 NW 33 52 18 28 - - 0.0
17/02:30pm 16.9 9.1 6.7 51 5.1 NW 37 52 20 28 - - 0.0
17/02:00pm 17.2 10.3 6.4 49 5.3 NW 32 46 17 25 - - 0.0

Other formats

Comma delimited format used in spreadsheet applications
http://www.bom.gov.au/fwo/IDT60801/IDT60801.95969.axf

JavaScript Object Notation format (JSON) in row-major order
http://www.bom.gov.au/fwo/IDT60801/IDT60801.95969.json

Data quality

Most of these data are generated automatically and are frequently updated. Quality checks on data are not normally performed. It is possible for incorrect values to appear. Refer to information at About Latest Weather Observations and please check the disclaimer before using these data.